sensor_id;sensor_type;location;lat;lon;timestamp;temperature;humidity
74657;DHT22;63185;45.642;13.764;2023-05-16T00:02:15;18.20;58.20
74657;DHT22;63185;45.642;13.764;2023-05-16T00:04:41;18.30;58.00
74657;DHT22;63185;45.642;13.764;2023-05-16T00:07:07;18.30;59.90
74657;DHT22;63185;45.642;13.764;2023-05-16T00:09:32;18.30;61.40
74657;DHT22;63185;45.642;13.764;2023-05-16T00:11:58;18.10;62.40
74657;DHT22;63185;45.642;13.764;2023-05-16T00:14:24;18.10;63.20
74657;DHT22;63185;45.642;13.764;2023-05-16T00:16:52;18.00;63.60
74657;DHT22;63185;45.642;13.764;2023-05-16T00:19:18;17.90;65.20
74657;DHT22;63185;45.642;13.764;2023-05-16T00:21:44;17.70;65.80
74657;DHT22;63185;45.642;13.764;2023-05-16T00:24:10;17.80;64.30
74657;DHT22;63185;45.642;13.764;2023-05-16T00:26:36;17.70;64.00
74657;DHT22;63185;45.642;13.764;2023-05-16T00:29:02;17.80;64.40
74657;DHT22;63185;45.642;13.764;2023-05-16T00:31:27;17.90;64.60
74657;DHT22;63185;45.642;13.764;2023-05-16T00:33:53;17.80;64.70
74657;DHT22;63185;45.642;13.764;2023-05-16T00:36:19;17.70;64.80
74657;DHT22;63185;45.642;13.764;2023-05-16T00:38:46;17.70;64.60
74657;DHT22;63185;45.642;13.764;2023-05-16T00:41:12;17.70;65.10
74657;DHT22;63185;45.642;13.764;2023-05-16T00:43:38;17.80;64.60
74657;DHT22;63185;45.642;13.764;2023-05-16T00:46:04;17.80;63.40
74657;DHT22;63185;45.642;13.764;2023-05-16T00:48:31;17.90;63.60
74657;DHT22;63185;45.642;13.764;2023-05-16T00:50:56;17.90;63.20
74657;DHT22;63185;45.642;13.764;2023-05-16T00:53:23;18.00;62.50
74657;DHT22;63185;45.642;13.764;2023-05-16T00:55:49;17.90;62.00
74657;DHT22;63185;45.642;13.764;2023-05-16T00:58:16;18.10;62.30
74657;DHT22;63185;45.642;13.764;2023-05-16T01:00:43;18.00;62.00
74657;DHT22;63185;45.642;13.764;2023-05-16T01:03:10;18.00;61.70
74657;DHT22;63185;45.642;13.764;2023-05-16T01:05:36;18.00;61.90
74657;DHT22;63185;45.642;13.764;2023-05-16T01:08:01;18.00;61.50
74657;DHT22;63185;45.642;13.764;2023-05-16T01:10:35;18.00;61.00
74657;DHT22;63185;45.642;13.764;2023-05-16T01:13:11;18.10;61.00
74657;DHT22;63185;45.642;13.764;2023-05-16T01:16:08;18.10;60.10
74657;DHT22;63185;45.642;13.764;2023-05-16T01:19:04;18.10;60.20
74657;DHT22;63185;45.642;13.764;2023-05-16T01:21:40;18.20;59.80
74657;DHT22;63185;45.642;13.764;2023-05-16T01:24:26;18.20;59.10
74657;DHT22;63185;45.642;13.764;2023-05-16T01:26:55;18.20;58.60
74657;DHT22;63185;45.642;13.764;2023-05-16T01:29:22;18.20;58.20
74657;DHT22;63185;45.642;13.764;2023-05-16T01:31:48;18.30;57.90
74657;DHT22;63185;45.642;13.764;2023-05-16T01:34:13;18.40;58.10
74657;DHT22;63185;45.642;13.764;2023-05-16T01:36:51;18.40;56.90
74657;DHT22;63185;45.642;13.764;2023-05-16T01:44:24;18.50;55.50
74657;DHT22;63185;45.642;13.764;2023-05-16T01:46:55;18.50;55.00
74657;DHT22;63185;45.642;13.764;2023-05-16T01:49:45;18.60;53.80
74657;DHT22;63185;45.642;13.764;2023-05-16T01:52:19;18.60;51.20
74657;DHT22;63185;45.642;13.764;2023-05-16T01:54:52;18.80;50.80
74657;DHT22;63185;45.642;13.764;2023-05-16T01:57:24;18.80;51.60
74657;DHT22;63185;45.642;13.764;2023-05-16T01:59:50;18.70;51.30
74657;DHT22;63185;45.642;13.764;2023-05-16T02:02:19;18.80;50.50
74657;DHT22;63185;45.642;13.764;2023-05-16T02:04:45;18.90;49.80
74657;DHT22;63185;45.642;13.764;2023-05-16T02:07:12;18.90;49.60
74657;DHT22;63185;45.642;13.764;2023-05-16T02:09:39;19.00;50.00
74657;DHT22;63185;45.642;13.764;2023-05-16T02:12:05;18.80;50.10
74657;DHT22;63185;45.642;13.764;2023-05-16T02:14:31;18.90;50.00
74657;DHT22;63185;45.642;13.764;2023-05-16T02:16:57;18.80;50.00
74657;DHT22;63185;45.642;13.764;2023-05-16T02:19:22;18.80;50.20
74657;DHT22;63185;45.642;13.764;2023-05-16T02:21:49;18.80;50.30
74657;DHT22;63185;45.642;13.764;2023-05-16T02:24:15;18.70;50.40
74657;DHT22;63185;45.642;13.764;2023-05-16T02:26:41;18.70;50.40
74657;DHT22;63185;45.642;13.764;2023-05-16T02:29:07;18.80;50.70
74657;DHT22;63185;45.642;13.764;2023-05-16T02:31:33;18.70;51.00
74657;DHT22;63185;45.642;13.764;2023-05-16T02:34:00;18.70;51.20
74657;DHT22;63185;45.642;13.764;2023-05-16T02:36:25;18.60;51.90
74657;DHT22;63185;45.642;13.764;2023-05-16T02:38:51;18.60;52.10
74657;DHT22;63185;45.642;13.764;2023-05-16T02:41:17;18.50;52.40
74657;DHT22;63185;45.642;13.764;2023-05-16T02:43:43;18.50;51.90
74657;DHT22;63185;45.642;13.764;2023-05-16T02:46:26;18.60;51.80
74657;DHT22;63185;45.642;13.764;2023-05-16T02:48:52;18.60;51.50
74657;DHT22;63185;45.642;13.764;2023-05-16T02:51:22;18.50;51.90
74657;DHT22;63185;45.642;13.764;2023-05-16T02:53:48;18.40;51.80
74657;DHT22;63185;45.642;13.764;2023-05-16T02:56:14;18.50;51.90
74657;DHT22;63185;45.642;13.764;2023-05-16T02:58:41;18.50;51.60
74657;DHT22;63185;45.642;13.764;2023-05-16T03:01:07;18.40;51.50
74657;DHT22;63185;45.642;13.764;2023-05-16T03:03:35;18.50;50.90
74657;DHT22;63185;45.642;13.764;2023-05-16T03:06:01;18.40;51.60
74657;DHT22;63185;45.642;13.764;2023-05-16T03:08:27;18.30;52.50
74657;DHT22;63185;45.642;13.764;2023-05-16T03:10:52;18.30;53.60
74657;DHT22;63185;45.642;13.764;2023-05-16T03:13:18;18.30;54.10
74657;DHT22;63185;45.642;13.764;2023-05-16T03:15:44;18.20;54.40
74657;DHT22;63185;45.642;13.764;2023-05-16T03:18:10;18.20;54.30
74657;DHT22;63185;45.642;13.764;2023-05-16T03:20:37;18.20;54.80
74657;DHT22;63185;45.642;13.764;2023-05-16T03:23:03;18.20;54.70
74657;DHT22;63185;45.642;13.764;2023-05-16T03:25:35;18.20;54.60
74657;DHT22;63185;45.642;13.764;2023-05-16T03:28:10;18.30;54.30
74657;DHT22;63185;45.642;13.764;2023-05-16T03:30:35;18.30;53.80
74657;DHT22;63185;45.642;13.764;2023-05-16T03:33:01;18.30;53.70
74657;DHT22;63185;45.642;13.764;2023-05-16T03:35:28;18.30;53.70
74657;DHT22;63185;45.642;13.764;2023-05-16T03:37:54;18.30;54.20
74657;DHT22;63185;45.642;13.764;2023-05-16T03:40:20;18.20;54.50
74657;DHT22;63185;45.642;13.764;2023-05-16T03:42:46;18.20;55.10
74657;DHT22;63185;45.642;13.764;2023-05-16T03:45:12;18.10;55.80
74657;DHT22;63185;45.642;13.764;2023-05-16T03:47:37;18.00;56.40
74657;DHT22;63185;45.642;13.764;2023-05-16T03:50:04;18.00;57.00
74657;DHT22;63185;45.642;13.764;2023-05-16T03:52:30;17.90;57.60
74657;DHT22;63185;45.642;13.764;2023-05-16T03:54:55;17.90;57.40
74657;DHT22;63185;45.642;13.764;2023-05-16T03:57:21;17.90;57.30
74657;DHT22;63185;45.642;13.764;2023-05-16T03:59:47;17.90;57.40
74657;DHT22;63185;45.642;13.764;2023-05-16T04:02:13;17.80;57.80
74657;DHT22;63185;45.642;13.764;2023-05-16T04:04:38;17.90;57.50
74657;DHT22;63185;45.642;13.764;2023-05-16T04:07:04;17.90;57.70
74657;DHT22;63185;45.642;13.764;2023-05-16T04:09:30;17.80;57.70
74657;DHT22;63185;45.642;13.764;2023-05-16T04:11:57;17.90;57.60
74657;DHT22;63185;45.642;13.764;2023-05-16T04:14:26;17.80;58.00
74657;DHT22;63185;45.642;13.764;2023-05-16T04:16:51;17.80;58.90
74657;DHT22;63185;45.642;13.764;2023-05-16T04:19:17;17.80;58.50
74657;DHT22;63185;45.642;13.764;2023-05-16T04:21:43;17.80;58.30
74657;DHT22;63185;45.642;13.764;2023-05-16T04:24:09;17.70;59.00
74657;DHT22;63185;45.642;13.764;2023-05-16T04:26:35;17.70;58.90
74657;DHT22;63185;45.642;13.764;2023-05-16T04:29:02;17.70;59.50
74657;DHT22;63185;45.642;13.764;2023-05-16T04:31:27;17.70;59.90
74657;DHT22;63185;45.642;13.764;2023-05-16T04:33:53;17.60;60.70
74657;DHT22;63185;45.642;13.764;2023-05-16T04:36:20;17.50;60.40
74657;DHT22;63185;45.642;13.764;2023-05-16T04:38:46;17.60;60.10
74657;DHT22;63185;45.642;13.764;2023-05-16T04:41:12;17.60;60.40
74657;DHT22;63185;45.642;13.764;2023-05-16T04:43:38;17.60;58.80
74657;DHT22;63185;45.642;13.764;2023-05-16T04:46:05;17.70;57.80
74657;DHT22;63185;45.642;13.764;2023-05-16T04:48:34;17.90;57.90
74657;DHT22;63185;45.642;13.764;2023-05-16T04:51:00;17.90;57.10
74657;DHT22;63185;45.642;13.764;2023-05-16T04:53:26;18.00;56.80
74657;DHT22;63185;45.642;13.764;2023-05-16T04:55:52;18.00;57.00
74657;DHT22;63185;45.642;13.764;2023-05-16T04:58:17;17.90;56.50
74657;DHT22;63185;45.642;13.764;2023-05-16T05:00:43;18.10;56.50
74657;DHT22;63185;45.642;13.764;2023-05-16T05:03:09;18.10;56.70
74657;DHT22;63185;45.642;13.764;2023-05-16T05:05:34;18.10;57.00
74657;DHT22;63185;45.642;13.764;2023-05-16T05:08:00;18.10;56.80
74657;DHT22;63185;45.642;13.764;2023-05-16T05:10:26;18.10;56.60
74657;DHT22;63185;45.642;13.764;2023-05-16T05:12:52;18.10;57.00
74657;DHT22;63185;45.642;13.764;2023-05-16T05:15:18;18.10;56.70
74657;DHT22;63185;45.642;13.764;2023-05-16T05:17:44;18.00;57.20
74657;DHT22;63185;45.642;13.764;2023-05-16T05:20:10;18.00;57.80
74657;DHT22;63185;45.642;13.764;2023-05-16T05:22:36;18.00;58.20
74657;DHT22;63185;45.642;13.764;2023-05-16T05:25:02;18.00;58.40
74657;DHT22;63185;45.642;13.764;2023-05-16T05:27:28;18.00;58.30
74657;DHT22;63185;45.642;13.764;2023-05-16T05:29:57;18.10;58.20
74657;DHT22;63185;45.642;13.764;2023-05-16T05:32:23;18.00;58.30
74657;DHT22;63185;45.642;13.764;2023-05-16T05:34:48;18.00;57.90
74657;DHT22;63185;45.642;13.764;2023-05-16T05:37:14;18.10;57.60
74657;DHT22;63185;45.642;13.764;2023-05-16T05:39:40;18.10;57.90
74657;DHT22;63185;45.642;13.764;2023-05-16T05:42:05;18.20;58.00
74657;DHT22;63185;45.642;13.764;2023-05-16T05:44:31;18.10;58.20
74657;DHT22;63185;45.642;13.764;2023-05-16T05:46:58;18.30;57.40
74657;DHT22;63185;45.642;13.764;2023-05-16T05:49:25;18.40;57.20
74657;DHT22;63185;45.642;13.764;2023-05-16T05:51:51;18.50;57.40
74657;DHT22;63185;45.642;13.764;2023-05-16T05:54:19;18.60;56.50
74657;DHT22;63185;45.642;13.764;2023-05-16T05:56:45;18.60;56.10
74657;DHT22;63185;45.642;13.764;2023-05-16T05:59:11;18.60;56.50
74657;DHT22;63185;45.642;13.764;2023-05-16T06:01:37;18.60;56.40
74657;DHT22;63185;45.642;13.764;2023-05-16T06:04:03;18.60;55.70
74657;DHT22;63185;45.642;13.764;2023-05-16T06:06:30;18.60;55.80
74657;DHT22;63185;45.642;13.764;2023-05-16T06:08:56;18.50;56.50
74657;DHT22;63185;45.642;13.764;2023-05-16T06:11:22;18.40;56.10
74657;DHT22;63185;45.642;13.764;2023-05-16T06:13:50;18.50;55.80
74657;DHT22;63185;45.642;13.764;2023-05-16T06:16:16;18.60;55.30
74657;DHT22;63185;45.642;13.764;2023-05-16T06:18:42;18.50;54.90
74657;DHT22;63185;45.642;13.764;2023-05-16T06:21:08;18.60;55.30
74657;DHT22;63185;45.642;13.764;2023-05-16T06:23:34;18.50;55.60
74657;DHT22;63185;45.642;13.764;2023-05-16T06:26:03;18.40;55.30
74657;DHT22;63185;45.642;13.764;2023-05-16T06:28:29;18.40;55.90
74657;DHT22;63185;45.642;13.764;2023-05-16T06:30:54;18.40;56.20
74657;DHT22;63185;45.642;13.764;2023-05-16T06:33:20;18.20;56.60
74657;DHT22;63185;45.642;13.764;2023-05-16T06:35:46;18.30;57.30
74657;DHT22;63185;45.642;13.764;2023-05-16T06:38:13;18.30;56.60
74657;DHT22;63185;45.642;13.764;2023-05-16T06:40:39;18.30;57.50
74657;DHT22;63185;45.642;13.764;2023-05-16T06:43:05;18.20;56.60
74657;DHT22;63185;45.642;13.764;2023-05-16T06:45:31;18.20;56.90
74657;DHT22;63185;45.642;13.764;2023-05-16T06:47:56;18.10;58.10
74657;DHT22;63185;45.642;13.764;2023-05-16T06:50:22;18.10;58.50
74657;DHT22;63185;45.642;13.764;2023-05-16T06:52:48;17.90;59.80
74657;DHT22;63185;45.642;13.764;2023-05-16T06:55:14;17.80;60.00
74657;DHT22;63185;45.642;13.764;2023-05-16T06:57:40;17.80;59.80
74657;DHT22;63185;45.642;13.764;2023-05-16T07:00:06;17.80;58.90
74657;DHT22;63185;45.642;13.764;2023-05-16T07:02:32;17.80;59.60
74657;DHT22;63185;45.642;13.764;2023-05-16T07:04:58;17.60;60.40
74657;DHT22;63185;45.642;13.764;2023-05-16T07:07:24;17.60;61.00
74657;DHT22;63185;45.642;13.764;2023-05-16T07:09:49;17.60;60.80
74657;DHT22;63185;45.642;13.764;2023-05-16T07:12:15;17.60;59.60
74657;DHT22;63185;45.642;13.764;2023-05-16T07:14:41;17.70;59.20
74657;DHT22;63185;45.642;13.764;2023-05-16T07:17:08;17.70;59.80
74657;DHT22;63185;45.642;13.764;2023-05-16T07:19:34;17.70;59.80
74657;DHT22;63185;45.642;13.764;2023-05-16T07:22:00;17.80;59.20
74657;DHT22;63185;45.642;13.764;2023-05-16T07:24:25;18.10;59.10
74657;DHT22;63185;45.642;13.764;2023-05-16T07:26:51;18.00;59.60
74657;DHT22;63185;45.642;13.764;2023-05-16T07:29:17;17.90;59.60
74657;DHT22;63185;45.642;13.764;2023-05-16T07:31:43;18.10;59.70
74657;DHT22;63185;45.642;13.764;2023-05-16T07:34:09;18.00;59.80
74657;DHT22;63185;45.642;13.764;2023-05-16T07:36:35;18.00;59.80
74657;DHT22;63185;45.642;13.764;2023-05-16T07:39:01;18.00;59.30
74657;DHT22;63185;45.642;13.764;2023-05-16T07:41:28;18.10;58.90
74657;DHT22;63185;45.642;13.764;2023-05-16T07:43:54;18.10;58.60
74657;DHT22;63185;45.642;13.764;2023-05-16T07:46:20;18.30;58.00
74657;DHT22;63185;45.642;13.764;2023-05-16T07:48:45;18.40;56.90
74657;DHT22;63185;45.642;13.764;2023-05-16T07:51:11;18.50;56.80
74657;DHT22;63185;45.642;13.764;2023-05-16T07:53:37;18.80;56.00
74657;DHT22;63185;45.642;13.764;2023-05-16T07:56:03;18.90;55.50
74657;DHT22;63185;45.642;13.764;2023-05-16T07:58:29;19.10;54.60
74657;DHT22;63185;45.642;13.764;2023-05-16T08:00:54;19.30;54.10
74657;DHT22;63185;45.642;13.764;2023-05-16T08:03:20;19.70;53.90
74657;DHT22;63185;45.642;13.764;2023-05-16T08:05:46;19.70;53.20
74657;DHT22;63185;45.642;13.764;2023-05-16T08:08:13;19.60;51.80
74657;DHT22;63185;45.642;13.764;2023-05-16T08:10:39;19.30;52.30
74657;DHT22;63185;45.642;13.764;2023-05-16T08:13:05;19.10;52.50
74657;DHT22;63185;45.642;13.764;2023-05-16T08:15:30;19.30;52.80
74657;DHT22;63185;45.642;13.764;2023-05-16T08:17:57;19.30;52.00
74657;DHT22;63185;45.642;13.764;2023-05-16T08:20:26;19.10;51.70
74657;DHT22;63185;45.642;13.764;2023-05-16T08:22:52;19.20;51.80
74657;DHT22;63185;45.642;13.764;2023-05-16T08:25:19;19.40;51.50
74657;DHT22;63185;45.642;13.764;2023-05-16T08:27:47;19.20;51.60
74657;DHT22;63185;45.642;13.764;2023-05-16T08:30:13;19.20;51.70
74657;DHT22;63185;45.642;13.764;2023-05-16T08:32:39;19.20;51.30
74657;DHT22;63185;45.642;13.764;2023-05-16T08:35:05;19.20;51.00
74657;DHT22;63185;45.642;13.764;2023-05-16T08:37:31;19.10;51.20
74657;DHT22;63185;45.642;13.764;2023-05-16T08:39:58;19.20;51.70
74657;DHT22;63185;45.642;13.764;2023-05-16T08:42:24;19.10;51.30
74657;DHT22;63185;45.642;13.764;2023-05-16T08:44:50;19.20;51.10
74657;DHT22;63185;45.642;13.764;2023-05-16T08:47:19;19.20;50.80
74657;DHT22;63185;45.642;13.764;2023-05-16T08:49:50;19.30;50.80
74657;DHT22;63185;45.642;13.764;2023-05-16T08:52:18;19.40;51.00
74657;DHT22;63185;45.642;13.764;2023-05-16T08:54:45;19.40;50.80
74657;DHT22;63185;45.642;13.764;2023-05-16T08:57:13;19.40;50.70
74657;DHT22;63185;45.642;13.764;2023-05-16T08:59:40;19.50;51.10
74657;DHT22;63185;45.642;13.764;2023-05-16T09:02:06;19.60;50.90
74657;DHT22;63185;45.642;13.764;2023-05-16T09:04:32;19.50;50.40
74657;DHT22;63185;45.642;13.764;2023-05-16T09:06:58;19.50;50.80
74657;DHT22;63185;45.642;13.764;2023-05-16T09:09:24;19.40;51.10
74657;DHT22;63185;45.642;13.764;2023-05-16T09:11:50;19.30;50.90
74657;DHT22;63185;45.642;13.764;2023-05-16T09:14:16;19.30;50.70
74657;DHT22;63185;45.642;13.764;2023-05-16T09:16:43;19.30;51.10
74657;DHT22;63185;45.642;13.764;2023-05-16T09:19:11;19.30;51.30
74657;DHT22;63185;45.642;13.764;2023-05-16T09:21:39;19.10;51.40
74657;DHT22;63185;45.642;13.764;2023-05-16T09:24:06;19.10;52.20
74657;DHT22;63185;45.642;13.764;2023-05-16T09:26:34;19.20;51.80
74657;DHT22;63185;45.642;13.764;2023-05-16T09:29:00;19.20;51.40
74657;DHT22;63185;45.642;13.764;2023-05-16T09:31:27;19.10;51.40
74657;DHT22;63185;45.642;13.764;2023-05-16T09:34:01;19.20;51.80
74657;DHT22;63185;45.642;13.764;2023-05-16T09:36:27;19.20;51.30
74657;DHT22;63185;45.642;13.764;2023-05-16T09:38:53;19.20;51.30
74657;DHT22;63185;45.642;13.764;2023-05-16T09:41:20;19.20;51.80
74657;DHT22;63185;45.642;13.764;2023-05-16T09:43:46;19.10;52.00
74657;DHT22;63185;45.642;13.764;2023-05-16T09:46:15;19.00;52.50
74657;DHT22;63185;45.642;13.764;2023-05-16T09:48:48;18.80;52.70
74657;DHT22;63185;45.642;13.764;2023-05-16T09:51:20;18.70;53.60
74657;DHT22;63185;45.642;13.764;2023-05-16T09:53:46;18.80;54.00
74657;DHT22;63185;45.642;13.764;2023-05-16T09:56:13;18.70;54.30
74657;DHT22;63185;45.642;13.764;2023-05-16T09:58:42;18.60;54.60
74657;DHT22;63185;45.642;13.764;2023-05-16T10:01:09;18.50;55.70
74657;DHT22;63185;45.642;13.764;2023-05-16T10:03:37;18.30;59.00
74657;DHT22;63185;45.642;13.764;2023-05-16T10:06:03;18.10;60.80
74657;DHT22;63185;45.642;13.764;2023-05-16T10:08:32;17.80;61.60
74657;DHT22;63185;45.642;13.764;2023-05-16T10:11:04;17.80;61.20
74657;DHT22;63185;45.642;13.764;2023-05-16T10:13:32;17.80;59.90
74657;DHT22;63185;45.642;13.764;2023-05-16T10:16:00;17.90;60.10
74657;DHT22;63185;45.642;13.764;2023-05-16T10:18:30;18.10;59.90
74657;DHT22;63185;45.642;13.764;2023-05-16T10:21:02;18.20;58.90
74657;DHT22;63185;45.642;13.764;2023-05-16T10:23:28;18.30;58.00
74657;DHT22;63185;45.642;13.764;2023-05-16T10:25:57;18.30;58.30
74657;DHT22;63185;45.642;13.764;2023-05-16T10:28:24;18.40;57.10
74657;DHT22;63185;45.642;13.764;2023-05-16T10:30:50;18.40;57.70
74657;DHT22;63185;45.642;13.764;2023-05-16T10:33:17;18.40;57.70
74657;DHT22;63185;45.642;13.764;2023-05-16T10:35:45;18.40;57.40
74657;DHT22;63185;45.642;13.764;2023-05-16T10:38:14;18.30;57.50
74657;DHT22;63185;45.642;13.764;2023-05-16T10:40:41;18.20;57.70
74657;DHT22;63185;45.642;13.764;2023-05-16T10:43:08;17.80;61.90
74657;DHT22;63185;45.642;13.764;2023-05-16T10:45:38;17.70;62.00
74657;DHT22;63185;45.642;13.764;2023-05-16T10:48:05;17.60;63.20
74657;DHT22;63185;45.642;13.764;2023-05-16T10:53:33;17.60;62.60
74657;DHT22;63185;45.642;13.764;2023-05-16T11:01:34;17.50;62.40
74657;DHT22;63185;45.642;13.764;2023-05-16T11:04:04;17.60;62.90
74657;DHT22;63185;45.642;13.764;2023-05-16T11:09:06;17.50;62.70
74657;DHT22;63185;45.642;13.764;2023-05-16T11:11:46;17.50;62.80
74657;DHT22;63185;45.642;13.764;2023-05-16T11:17:13;17.60;62.00
74657;DHT22;63185;45.642;13.764;2023-05-16T11:22:31;17.50;62.30
74657;DHT22;63185;45.642;13.764;2023-05-16T11:25:07;17.50;61.90
74657;DHT22;63185;45.642;13.764;2023-05-16T11:27:43;17.50;61.90
74657;DHT22;63185;45.642;13.764;2023-05-16T11:32:36;17.60;61.90
74657;DHT22;63185;45.642;13.764;2023-05-16T11:35:03;17.60;62.20
74657;DHT22;63185;45.642;13.764;2023-05-16T11:37:29;17.60;61.70
74657;DHT22;63185;45.642;13.764;2023-05-16T11:39:59;17.60;61.40
74657;DHT22;63185;45.642;13.764;2023-05-16T11:42:30;17.60;61.50
74657;DHT22;63185;45.642;13.764;2023-05-16T11:45:22;17.70;60.60
74657;DHT22;63185;45.642;13.764;2023-05-16T11:47:51;17.80;60.10
74657;DHT22;63185;45.642;13.764;2023-05-16T11:50:19;17.90;59.90
74657;DHT22;63185;45.642;13.764;2023-05-16T11:52:52;18.00;58.50
74657;DHT22;63185;45.642;13.764;2023-05-16T11:55:23;18.10;58.10
74657;DHT22;63185;45.642;13.764;2023-05-16T11:57:50;18.10;58.00
74657;DHT22;63185;45.642;13.764;2023-05-16T12:00:18;18.10;58.70
74657;DHT22;63185;45.642;13.764;2023-05-16T12:02:45;18.30;58.60
74657;DHT22;63185;45.642;13.764;2023-05-16T12:05:12;18.20;58.10
74657;DHT22;63185;45.642;13.764;2023-05-16T12:07:39;18.30;58.00
74657;DHT22;63185;45.642;13.764;2023-05-16T12:10:09;18.20;59.30
74657;DHT22;63185;45.642;13.764;2023-05-16T12:12:39;18.10;59.80
74657;DHT22;63185;45.642;13.764;2023-05-16T12:15:06;18.00;60.60
74657;DHT22;63185;45.642;13.764;2023-05-16T12:17:36;17.80;61.00
74657;DHT22;63185;45.642;13.764;2023-05-16T12:20:03;17.80;60.80
74657;DHT22;63185;45.642;13.764;2023-05-16T12:22:33;17.90;61.60
74657;DHT22;63185;45.642;13.764;2023-05-16T12:25:00;17.90;61.20
74657;DHT22;63185;45.642;13.764;2023-05-16T12:27:41;17.70;60.80
74657;DHT22;63185;45.642;13.764;2023-05-16T12:30:08;17.70;61.60
74657;DHT22;63185;45.642;13.764;2023-05-16T12:32:36;17.70;61.70
74657;DHT22;63185;45.642;13.764;2023-05-16T12:35:02;17.60;61.40
74657;DHT22;63185;45.642;13.764;2023-05-16T12:37:27;17.60;62.00
74657;DHT22;63185;45.642;13.764;2023-05-16T12:39:59;17.60;62.50
74657;DHT22;63185;45.642;13.764;2023-05-16T12:42:26;17.50;62.60
74657;DHT22;63185;45.642;13.764;2023-05-16T12:44:54;17.50;62.30
74657;DHT22;63185;45.642;13.764;2023-05-16T12:47:21;17.50;61.20
74657;DHT22;63185;45.642;13.764;2023-05-16T12:49:47;17.60;61.20
74657;DHT22;63185;45.642;13.764;2023-05-16T12:52:19;17.70;61.70
74657;DHT22;63185;45.642;13.764;2023-05-16T12:54:46;17.70;61.80
74657;DHT22;63185;45.642;13.764;2023-05-16T12:57:12;17.80;61.40
74657;DHT22;63185;45.642;13.764;2023-05-16T12:59:38;17.80;60.60
74657;DHT22;63185;45.642;13.764;2023-05-16T13:02:04;17.90;59.60
74657;DHT22;63185;45.642;13.764;2023-05-16T13:04:30;18.00;58.90
74657;DHT22;63185;45.642;13.764;2023-05-16T13:06:56;18.00;58.90
74657;DHT22;63185;45.642;13.764;2023-05-16T13:09:22;18.10;59.00
74657;DHT22;63185;45.642;13.764;2023-05-16T13:11:48;18.10;59.20
74657;DHT22;63185;45.642;13.764;2023-05-16T13:14:15;18.10;59.40
74657;DHT22;63185;45.642;13.764;2023-05-16T13:16:44;18.10;59.30
74657;DHT22;63185;45.642;13.764;2023-05-16T13:19:10;18.10;59.20
74657;DHT22;63185;45.642;13.764;2023-05-16T13:21:35;18.10;59.60
74657;DHT22;63185;45.642;13.764;2023-05-16T13:24:01;18.00;60.10
74657;DHT22;63185;45.642;13.764;2023-05-16T13:26:27;18.00;59.00
74657;DHT22;63185;45.642;13.764;2023-05-16T13:28:53;17.90;59.70
74657;DHT22;63185;45.642;13.764;2023-05-16T13:31:20;17.80;59.70
74657;DHT22;63185;45.642;13.764;2023-05-16T13:33:48;17.80;59.80
74657;DHT22;63185;45.642;13.764;2023-05-16T13:36:15;17.90;59.10
74657;DHT22;63185;45.642;13.764;2023-05-16T13:38:41;17.90;59.00
74657;DHT22;63185;45.642;13.764;2023-05-16T13:41:07;17.80;60.10
74657;DHT22;63185;45.642;13.764;2023-05-16T13:43:32;17.80;60.90
74657;DHT22;63185;45.642;13.764;2023-05-16T13:45:58;17.70;61.80
74657;DHT22;63185;45.642;13.764;2023-05-16T13:48:24;17.60;62.50
74657;DHT22;63185;45.642;13.764;2023-05-16T13:50:50;17.30;62.90
74657;DHT22;63185;45.642;13.764;2023-05-16T13:53:17;17.40;62.40
74657;DHT22;63185;45.642;13.764;2023-05-16T13:55:43;17.50;61.10
74657;DHT22;63185;45.642;13.764;2023-05-16T13:58:09;17.60;60.40
74657;DHT22;63185;45.642;13.764;2023-05-16T14:00:34;17.80;59.90
74657;DHT22;63185;45.642;13.764;2023-05-16T14:03:00;17.90;59.80
74657;DHT22;63185;45.642;13.764;2023-05-16T14:05:26;18.10;59.50
74657;DHT22;63185;45.642;13.764;2023-05-16T14:07:52;18.10;59.90
74657;DHT22;63185;45.642;13.764;2023-05-16T14:10:17;18.20;59.60
74657;DHT22;63185;45.642;13.764;2023-05-16T14:12:43;18.00;60.10
74657;DHT22;63185;45.642;13.764;2023-05-16T14:15:09;18.00;60.50
74657;DHT22;63185;45.642;13.764;2023-05-16T14:17:35;18.10;60.50
74657;DHT22;63185;45.642;13.764;2023-05-16T14:20:01;18.10;60.50
74657;DHT22;63185;45.642;13.764;2023-05-16T14:22:27;18.00;60.10
74657;DHT22;63185;45.642;13.764;2023-05-16T14:24:53;18.00;60.50
74657;DHT22;63185;45.642;13.764;2023-05-16T14:27:19;18.10;60.40
74657;DHT22;63185;45.642;13.764;2023-05-16T14:29:44;18.10;60.00
74657;DHT22;63185;45.642;13.764;2023-05-16T14:32:12;18.20;59.60
74657;DHT22;63185;45.642;13.764;2023-05-16T14:34:38;18.10;59.80
74657;DHT22;63185;45.642;13.764;2023-05-16T14:37:04;18.20;59.70
74657;DHT22;63185;45.642;13.764;2023-05-16T14:39:29;18.30;59.20
74657;DHT22;63185;45.642;13.764;2023-05-16T14:41:55;18.40;58.90
74657;DHT22;63185;45.642;13.764;2023-05-16T14:44:21;18.40;58.60
74657;DHT22;63185;45.642;13.764;2023-05-16T14:46:49;18.60;58.20
74657;DHT22;63185;45.642;13.764;2023-05-16T14:49:14;18.80;57.40
74657;DHT22;63185;45.642;13.764;2023-05-16T14:51:40;19.00;56.50
74657;DHT22;63185;45.642;13.764;2023-05-16T14:54:09;19.20;55.70
74657;DHT22;63185;45.642;13.764;2023-05-16T14:56:34;19.70;54.50
74657;DHT22;63185;45.642;13.764;2023-05-16T14:59:00;19.90;53.80
74657;DHT22;63185;45.642;13.764;2023-05-16T15:01:26;20.10;53.30
74657;DHT22;63185;45.642;13.764;2023-05-16T15:03:52;19.90;53.00
74657;DHT22;63185;45.642;13.764;2023-05-16T15:06:18;19.50;53.70
74657;DHT22;63185;45.642;13.764;2023-05-16T15:08:43;19.40;53.70
74657;DHT22;63185;45.642;13.764;2023-05-16T15:11:09;19.30;54.20
74657;DHT22;63185;45.642;13.764;2023-05-16T15:13:35;19.00;54.80
74657;DHT22;63185;45.642;13.764;2023-05-16T15:16:01;18.90;55.30
74657;DHT22;63185;45.642;13.764;2023-05-16T15:18:26;18.70;55.70
74657;DHT22;63185;45.642;13.764;2023-05-16T15:20:52;18.70;56.10
74657;DHT22;63185;45.642;13.764;2023-05-16T15:23:18;18.60;56.40
74657;DHT22;63185;45.642;13.764;2023-05-16T15:25:44;18.60;56.20
74657;DHT22;63185;45.642;13.764;2023-05-16T15:28:10;18.50;56.00
74657;DHT22;63185;45.642;13.764;2023-05-16T15:30:36;18.50;56.20
74657;DHT22;63185;45.642;13.764;2023-05-16T15:33:02;18.50;56.50
74657;DHT22;63185;45.642;13.764;2023-05-16T15:35:27;18.50;56.50
74657;DHT22;63185;45.642;13.764;2023-05-16T15:37:53;18.50;56.10
74657;DHT22;63185;45.642;13.764;2023-05-16T15:40:21;18.50;55.30